createdAt,value
2023-01-10T01:56:51.511Z,100414.44
2023-01-10T01:59:39.788Z,100406.63
2023-01-10T02:02:10.519Z,100399.98
2023-01-10T02:04:55.169Z,100406.71
2023-01-10T02:07:22.347Z,100403.20
2023-01-10T02:09:52.335Z,100398.50
2023-01-10T02:12:19.207Z,100403.13
2023-01-10T02:14:47.651Z,100392.96
2023-01-10T02:17:14.397Z,100393.28
2023-01-10T02:20:01.666Z,100387.67
2023-01-10T02:22:41.686Z,100392.95
2023-01-10T02:25:43.720Z,100385.86
2023-01-10T02:28:22.867Z,100389.27
2023-01-10T02:31:11.069Z,100387.67
2023-01-10T02:33:57.415Z,100384.51
2023-01-10T02:36:27.574Z,100386.67
2023-01-10T02:38:58.361Z,100395.66
2023-01-10T02:41:49.554Z,100393.48
2023-01-10T02:44:30.396Z,100401.65
2023-01-10T02:46:57.117Z,100409.09
2023-01-10T02:49:24.096Z,100409.09
2023-01-10T02:51:50.905Z,100410.08
2023-01-10T02:54:22.141Z,100412.16
2023-01-10T02:57:24.313Z,100417.33
2023-01-10T03:00:25.581Z,100416.45
2023-01-10T03:02:57.788Z,100421.14
2023-01-10T03:05:49.688Z,100421.14
2023-01-10T03:08:26.040Z,100423.98
2023-01-10T03:11:09.273Z,100418.50
2023-01-10T03:13:42.387Z,100427.78
2023-01-10T03:16:11.838Z,100431.48
2023-01-10T03:18:46.295Z,100432.23
2023-01-10T03:21:13.138Z,100432.97
2023-01-10T03:23:40.070Z,100438.31
2023-01-10T03:26:06.797Z,100435.37
2023-01-10T03:28:38.983Z,100439.25
2023-01-10T03:31:12.224Z,100447.66
2023-01-10T03:33:39.031Z,100451.84
2023-01-10T03:36:26.295Z,100450.47
2023-01-10T03:39:20.499Z,100456.24
2023-01-10T03:41:48.840Z,100463.55
2023-01-10T03:44:44.406Z,100451.23
2023-01-10T03:47:37.116Z,100448.50
2023-01-10T03:50:06.894Z,100446.79
2023-01-10T03:52:34.141Z,100447.20
2023-01-10T03:55:02.154Z,100450.37
2023-01-10T03:57:29.195Z,100449.40
2023-01-10T03:59:57.569Z,100450.51
2023-01-10T04:02:30.239Z,100451.39
2023-01-10T04:04:58.501Z,100465.43
2023-01-10T04:07:25.655Z,100464.73
2023-01-10T04:09:52.828Z,100464.41
2023-01-10T04:12:19.571Z,100467.82
2023-01-10T04:14:46.572Z,100482.18
2023-01-10T04:17:14.367Z,100474.25
2023-01-10T04:19:41.716Z,100479.60
2023-01-10T04:22:09.204Z,100484.57
2023-01-10T04:24:35.960Z,100488.41
2023-01-10T04:27:02.900Z,100491.35
2023-01-10T04:29:29.815Z,100486.79
2023-01-10T04:31:56.655Z,100484.62
2023-01-10T04:34:23.503Z,100496.63
2023-01-10T04:36:50.708Z,100492.34
2023-01-10T04:39:18.417Z,100502.07
2023-01-10T04:41:45.155Z,100496.66
2023-01-10T04:44:12.257Z,100507.02
2023-01-10T04:46:39.266Z,100505.23
2023-01-10T04:49:06.780Z,100513.45
2023-01-10T04:51:33.918Z,100512.65
2023-01-10T04:54:00.690Z,100517.16
2023-01-10T04:56:27.554Z,100510.73
2023-01-10T04:58:54.768Z,100509.20
2023-01-10T05:01:23.259Z,100506.32
2023-01-10T05:03:54.743Z,100506.21
2023-01-10T05:06:21.872Z,100505.20
2023-01-10T05:08:48.977Z,100511.13
2023-01-10T05:11:16.409Z,100511.05
2023-01-10T05:13:43.272Z,100515.64
2023-01-10T05:16:10.146Z,100506.46
2023-01-10T05:18:37.235Z,100511.25
2023-01-10T05:21:09.106Z,100516.52
2023-01-10T05:23:36.363Z,100520.97
2023-01-10T05:26:13.439Z,100529.55
2023-01-10T05:28:40.705Z,100537.01
2023-01-10T05:31:08.766Z,100540.94
2023-01-10T05:33:35.732Z,100545.20
2023-01-10T05:36:03.987Z,100545.70
2023-01-10T05:38:32.080Z,100541.17
2023-01-10T05:40:59.161Z,100543.04
2023-01-10T05:43:26.265Z,100552.27
2023-01-10T05:45:53.699Z,100553.02
2023-01-10T05:48:20.496Z,100553.73
2023-01-10T05:50:49.260Z,100550.84
2023-01-10T05:53:19.378Z,100560.23
2023-01-10T05:56:00.064Z,100564.95
2023-01-10T05:58:27.228Z,100573.49
2023-01-10T06:00:55.087Z,100575.52
2023-01-10T06:03:22.124Z,100579.20
2023-01-10T06:05:49.598Z,100584.65
2023-01-10T06:08:19.282Z,100574.76
2023-01-10T06:10:46.491Z,100579.52
2023-01-10T08:09:08.191Z,100687.65
2023-01-10T08:11:35.847Z,100684.66
2023-01-10T08:14:02.797Z,100680.22
2023-01-10T08:16:29.642Z,100672.59
2023-01-10T08:18:56.592Z,100670.57
2023-01-10T08:21:23.668Z,100675.57
2023-01-10T08:23:51.198Z,100672.05
2023-01-10T08:26:19.785Z,100670.67
2023-01-10T08:28:46.451Z,100663.33
2023-01-10T08:31:13.300Z,100664.13
2023-01-10T08:33:40.330Z,100659.50
2023-01-10T08:36:15.260Z,100664.64
2023-01-10T08:38:42.035Z,100660.16
2023-01-10T08:41:08.791Z,100669.53
2023-01-10T08:43:35.988Z,100675.93
2023-01-10T08:46:02.667Z,100673.60
2023-01-10T08:48:29.882Z,100675.97
2023-01-10T08:50:56.624Z,100682.75
2023-01-10T08:53:23.562Z,100680.95
2023-01-10T08:55:50.340Z,100677.60
2023-01-10T08:58:17.360Z,100682.09
2023-01-10T09:00:44.657Z,100687.93
2023-01-10T09:03:11.406Z,100681.03
2023-01-10T09:05:40.963Z,100673.31
2023-01-10T09:08:08.011Z,100680.69
2023-01-10T09:10:35.163Z,100672.22
2023-01-10T09:13:02.097Z,100677.37
2023-01-10T09:15:31.824Z,100675.89
2023-01-10T09:18:01.195Z,100664.95
2023-01-10T09:20:28.610Z,100677.91
2023-01-10T09:22:56.555Z,100667.90
2023-01-10T09:25:24.340Z,100683.05
2023-01-10T09:27:58.577Z,100689.59
2023-01-10T09:30:26.403Z,100685.84
2023-01-10T09:32:53.364Z,100680.70
2023-01-10T09:35:20.707Z,100688.48
2023-01-10T09:37:47.881Z,100694.39
2023-01-10T09:40:16.184Z,100694.91
2023-01-10T09:42:50.233Z,100684.71
2023-01-10T09:45:41.261Z,100687.36
2023-01-10T09:48:11.538Z,100699.84
2023-01-10T09:50:53.408Z,100699.81
2023-01-10T09:53:23.489Z,100703.10
2023-01-10T09:55:56.387Z,100696.70
2023-01-10T09:58:28.885Z,100697.36
2023-01-10T10:01:00.448Z,100694.28
2023-01-10T10:03:31.216Z,100710.67
2023-01-10T10:06:10.918Z,100704.02
2023-01-10T10:08:43.890Z,100687.02
2023-01-10T10:11:25.661Z,100690.83
2023-01-10T10:14:14.235Z,100686.23
2023-01-10T10:17:06.089Z,100691.35
2023-01-10T10:19:57.691Z,100692.95
2023-01-10T10:22:59.150Z,100698.02
2023-01-10T10:25:41.806Z,100705.02
2023-01-10T10:28:31.443Z,100704.05
2023-01-10T10:31:07.738Z,100712.52
2023-01-10T10:33:48.769Z,100708.10
2023-01-10T10:36:38.233Z,100713.10
2023-01-10T10:39:04.921Z,100712.94
2023-01-10T10:41:38.117Z,100716.25
2023-01-10T10:44:18.361Z,100716.30
2023-01-10T10:46:45.148Z,100707.00
2023-01-10T10:49:19.427Z,100701.79
2023-01-10T10:51:51.702Z,100695.53
2023-01-10T10:54:18.564Z,100693.55
2023-01-10T10:56:45.369Z,100676.48
2023-01-10T10:59:17.031Z,100668.82
2023-01-10T11:01:47.478Z,100665.05
2023-01-10T11:04:16.251Z,100659.88
2023-01-10T11:06:48.400Z,100664.23
2023-01-10T11:09:28.450Z,100661.93
2023-01-10T11:11:56.270Z,100672.20
2023-01-10T11:14:49.702Z,100652.27
2023-01-10T12:12:29.811Z,100694.31
2023-01-10T12:15:25.186Z,100673.91
2023-01-10T12:17:52.651Z,100678.50
2023-01-10T12:20:19.494Z,100683.87
2023-01-10T12:22:48.930Z,100682.72
2023-01-10T12:25:36.851Z,100680.88
2023-01-10T12:28:04.404Z,100694.44
2023-01-10T12:30:43.068Z,100704.77
2023-01-10T12:33:15.380Z,100703.70
2023-01-10T12:35:52.485Z,100705.52
2023-01-10T12:38:59.669Z,100712.90
2023-01-10T12:42:00.036Z,100706.36
2023-01-10T12:44:41.282Z,100710.00
2023-01-10T12:47:14.321Z,100710.38
2023-01-10T12:49:46.743Z,100707.38
2023-01-10T12:52:29.372Z,100712.35
2023-01-10T12:54:56.095Z,100694.27
2023-01-10T12:57:27.469Z,100694.61
2023-01-10T12:59:55.009Z,100711.67
2023-01-10T13:02:23.776Z,100686.57
2023-01-10T13:04:56.888Z,100702.89
2023-01-10T13:07:27.767Z,100701.75
2023-01-10T13:09:54.405Z,100712.56
2023-01-10T13:12:37.918Z,100720.05
2023-01-10T13:15:36.017Z,100711.77
2023-01-10T13:18:18.192Z,100725.66
2023-01-10T13:20:45.629Z,100740.64
2023-01-10T13:23:20.684Z,100752.44
2023-01-10T13:26:08.611Z,100754.84
2023-01-10T13:28:38.026Z,100761.38
2023-01-10T13:31:07.550Z,100769.50
2023-01-10T13:33:50.544Z,100775.04
2023-01-10T13:36:37.986Z,100782.42
2023-01-10T13:39:08.263Z,100773.90
2023-01-10T13:42:16.207Z,100781.73
2023-01-10T13:45:04.555Z,100778.31
2023-01-10T13:47:47.843Z,100783.17
2023-01-10T13:50:33.265Z,100779.52
2023-01-10T13:53:01.849Z,100783.41
2023-01-10T13:55:53.069Z,100782.97
2023-01-10T13:58:41.718Z,100776.76
2023-01-10T14:01:49.080Z,100785.14
2023-01-10T14:04:34.131Z,100789.91
2023-01-10T18:31:56.681Z,100850.34
2023-01-10T18:34:23.638Z,100836.09
2023-01-10T18:36:53.936Z,100851.54
2023-01-10T18:39:20.976Z,100847.25
2023-01-10T18:41:48.026Z,100858.23
2023-01-10T18:44:15.494Z,100860.73
2023-01-10T18:46:43.318Z,100847.21
2023-01-10T18:49:10.401Z,100856.30
2023-01-10T18:51:37.190Z,100849.02
2023-01-10T18:54:06.345Z,100855.58
2023-01-10T18:56:33.596Z,100858.92
2023-01-10T18:59:00.427Z,100856.56
2023-01-10T19:01:29.079Z,100860.80
2023-01-10T19:03:56.900Z,100862.04
2023-01-10T19:06:24.358Z,100863.30
2023-01-10T19:08:51.504Z,100866.48
2023-01-10T19:11:19.027Z,100873.13
2023-01-10T19:13:49.304Z,100873.44
2023-01-10T19:16:23.013Z,100879.61
2023-01-10T19:18:55.991Z,100879.83
2023-01-10T19:21:23.645Z,100888.77
2023-01-10T19:23:53.361Z,100881.35
2023-01-10T19:26:21.637Z,100883.08
2023-01-10T19:28:48.688Z,100885.40
2023-01-10T19:31:26.834Z,100894.29
2023-01-10T19:33:54.075Z,100885.48
2023-01-10T19:36:24.425Z,100887.14
2023-01-10T19:38:56.553Z,100899.67
2023-01-10T19:41:24.941Z,100898.99
2023-01-10T19:43:59.081Z,100899.95
2023-01-10T19:46:26.675Z,100905.54
2023-01-10T19:48:57.147Z,100900.79
2023-01-10T19:51:24.274Z,100909.54
2023-01-10T19:53:52.658Z,100913.60
2023-01-10T19:56:22.469Z,100911.15
2023-01-10T19:58:49.973Z,100919.64
2023-01-10T20:01:22.341Z,100918.72
2023-01-10T20:03:49.664Z,100933.45
2023-01-10T20:06:20.247Z,100916.61
2023-01-10T20:08:47.349Z,100929.86
2023-01-10T20:11:14.696Z,100928.94
2023-01-10T20:13:45.062Z,100931.65
2023-01-10T20:16:13.463Z,100928.16
2023-01-10T20:18:40.904Z,100938.63
2023-01-10T20:21:08.859Z,100941.21
2023-01-10T20:23:37.523Z,100941.67
2023-01-10T20:26:06.204Z,100943.50
2023-01-10T20:28:33.565Z,100942.41
2023-01-10T20:31:00.571Z,100933.71
2023-01-10T20:33:27.981Z,100934.98
2023-01-10T20:35:59.139Z,100930.87
2023-01-10T20:38:29.452Z,100937.67
2023-01-10T20:41:00.791Z,100934.31
2023-01-10T20:43:27.841Z,100938.67
2023-01-10T20:45:55.910Z,100937.55
2023-01-10T20:48:23.292Z,100934.99
2023-01-10T20:50:50.223Z,100935.92
2023-01-10T20:53:17.158Z,100946.23
2023-01-10T20:55:48.772Z,100949.80
2023-01-10T20:58:23.450Z,100949.86
2023-01-10T21:00:50.292Z,100958.52
2023-01-10T21:03:17.339Z,100963.15
2023-01-10T21:05:50.028Z,100963.59
2023-01-10T21:08:17.892Z,100966.08
2023-01-10T21:10:47.768Z,100969.15
2023-01-10T21:13:15.517Z,100974.77
2023-01-10T21:15:43.707Z,100978.29
2023-01-10T21:18:12.121Z,100982.66
2023-01-10T21:20:43.012Z,100978.73
2023-01-10T21:23:10.666Z,100991.02
2023-01-10T21:25:38.632Z,100987.03
2023-01-10T21:28:09.242Z,100991.45
2023-01-10T21:30:36.787Z,100992.42
2023-01-10T21:33:03.813Z,100999.48
2023-01-10T21:35:31.088Z,101007.10
2023-01-10T21:37:57.934Z,101004.77
2023-01-10T21:40:25.341Z,100997.80
2023-01-10T21:42:52.137Z,100995.28
2023-01-10T21:45:20.620Z,101007.52
2023-01-10T21:47:50.551Z,101001.63
2023-01-10T21:50:19.103Z,100991.95
2023-01-10T21:52:46.783Z,101002.75
2023-01-10T21:55:14.344Z,101006.88
